Información del aeropuerto LEVT

Información de pista
Pista 04 Longitud 11483 ft Anchura 148 ft
Elevación 1651 ft Umbral ft Rumbo 36
Pista 22 Longitud 11483 ft Anchura 148 ft
Elevación 1682 ft Umbral ft Rumbo 216
Frecuencias del aeropuerto
Tipo GND Nombre GND Frecuencia 121.8 MHZ
Tipo TWR Nombre TWR Frecuencia 118.45 MHZ
Radioayudas del aeropuerto
Tipo VOR-DME Nombre Vitoria Frecuencia 112900 KHZ
Tipo VOR-DME Nombre Vitoria Frecuencia 116600 KHZ
Información meteorológica del aeropuerto y NOTAM
ADDS - METARS form results

(2259 UTC 08 August 2022)
Data provider http://aviationweather.gov/metar/data/
 
METAR text: LEVT 082230Z 28008KT 9999 TS FEW060CB 21/13 Q1021
Conditions at: LEVT (VITORIA , ES) observed 2230 UTC 08 August 2022
Temperature: 21.0°C (70°F)
Dewpoint: 13.0°C (55°F) [RH = 60%]
Pressure (altimeter): 30.15 inches Hg (1021.0 mb)
Winds: from the W (280 degrees) at 9 MPH (8 knots; 4.1 m/s)
Visibility: 6 or more miles (10+ km)
Ceiling: at least 12,000 feet AGL
Clouds: few clouds at 6000 feet AGL
Weather: TS  (thunderstorm)

METAR text: LEVT 082221Z 29008KT 9999 TS FEW060CB 21/13 Q1021
Conditions at: LEVT (VITORIA , ES) observed 2221 UTC 08 August 2022
Temperature: 21.0°C (70°F)
Dewpoint: 13.0°C (55°F) [RH = 60%]
Pressure (altimeter): 30.15 inches Hg (1021.0 mb)
Winds: from the WNW (290 degrees) at 9 MPH (8 knots; 4.1 m/s)
Visibility: 6 or more miles (10+ km)
Ceiling: at least 12,000 feet AGL
Clouds: few clouds at 6000 feet AGL
Weather: TS  (thunderstorm)

METAR text: LEVT 082200Z 30007KT CAVOK 21/13 Q1020
Conditions at: LEVT (VITORIA , ES) observed 2200 UTC 08 August 2022
Temperature: 21.0°C (70°F)
Dewpoint: 13.0°C (55°F) [RH = 60%]
Pressure (altimeter): 30.12 inches Hg (1020.0 mb)
Winds: from the WNW (300 degrees) at 8 MPH (7 knots; 3.6 m/s)
Visibility: 6 or more miles (10+ km)
Ceiling: ceiling and visibility are OK
Clouds: unknown
Weather: no significant weather observed at this time

Forecast for: AMD
Text: TAF AMD LEVT 082040Z 0820/0918 32006KT 9999 FEW050 TX35/0915Z TN20/0906Z
Forecast period: 2000 UTC 08 August 2022 to 1100 UTC 09 August 2022
Forecast type: FROM: standard forecast or significant change
Winds: from the NW (320 degrees) at 7 MPH (6 knots; 3.1 m/s)
Visibility: 6 or more miles (10+ km)
Ceiling: at least 12,000 feet AGL
Clouds: few clouds at 5000 feet AGL
Weather: no significant weather forecast for this period
Text: PROB40
Forecast period: 2000 UTC 08 August 2022 to 0700 UTC 09 August 2022
Forecast type: TEMPORARY: The following changes expected for less than half the time period
Visibility: missing
Ceiling: at least 12,000 feet AGL
Clouds: few clouds at 5000 feet AGL
Weather: no significant weather forecast for this period
Text: TEMPO 0820/0907 FEW050TCU
Forecast period: 2000 UTC 08 August 2022 to 0000 UTC 09 August 2022
Forecast type: TEMPORARY: The following changes expected for less than half the time period
Visibility: missing
Ceiling: at least 12,000 feet AGL
Clouds: few clouds at 5000 feet AGL
Weather: SHRA TS  (rain showers, thunderstorm)
Text: PROB30
Forecast period: 0000 to 0700 UTC 09 August 2022
Forecast type: TEMPORARY: The following changes expected for less than half the time period
Visibility: 1.86 miles (2.99 km)
Ceiling: at least 12,000 feet AGL
Clouds: scattered clouds at 4500 feet AGL
Weather: SHRA TS  (rain showers, thunderstorm)
Text: TEMPO 0820/0824 SHRA TS FEW050CB
Forecast period: 1100 to 1800 UTC 09 August 2022
Forecast type: BECOMING: Conditions expected to become as follows by 1400 UTC 09 August 2022
Winds: from the NNE (20 degrees) at 14 MPH (12 knots; 6.2 m/s)
Visibility: 6 or more miles (10+ km)
Ceiling: at least 12,000 feet AGL
Clouds: few clouds at 5000 feet AGL
Weather: no significant weather forecast for this period
Text: PROB40
Forecast period: 1300 to 1800 UTC 09 August 2022
Forecast type: TEMPORARY: The following changes expected for less than half the time period
Visibility: missing
Ceiling: at least 12,000 feet AGL
Clouds: scattered clouds at 4000 feet AGL
Weather: no significant weather forecast for this period